Time;durP1;ratioP1;P1;durP2;ratioP2;P2;SDS_P1;SDS_P2;PMS_P1;PMS_P2;Temp;Humidity;BMP_temperature;BMP_pressure;BME280_temperature;BME280_humidity;BME280_pressure;Samples;Min_cycle;Max_cycle;Signal;HPM_P1;HPM_P2
2022/04/06 00:01:58;;;;;;;8.25;5.07;;;;;;;10.34;55.88;99175.44;7738821;32;40688;-71
2022/04/06 00:06:15;;;;;;;8.65;5.53;;;;;;;10.30;56.43;99182.53;7738873;32;37899;-71
2022/04/06 00:10:52;;;;;;;10.88;4.78;;;;;;;10.15;56.93;99172.56;7962103;26;37164;-71
2022/04/06 00:15:10;;;;;;;7.70;4.85;;;;;;;10.34;56.11;99172.72;7712073;32;39034;-71
2022/04/06 00:19:26;;;;;;;10.98;5.55;;;;;;;10.18;56.88;99173.94;7712020;32;39315;-70
2022/04/06 00:23:42;;;;;;;9.57;5.30;;;;;;;10.53;55.65;99170.09;7711771;32;38625;-69
2022/04/06 00:27:59;;;;;;;9.20;5.15;;;;;;;10.38;55.86;99179.22;7737004;32;36895;-70
2022/04/06 00:32:15;;;;;;;10.52;4.97;;;;;;;10.26;56.36;99176.84;7738654;32;40077;-71
2022/04/06 00:36:31;;;;;;;7.97;4.87;;;;;;;10.09;56.94;99188.13;7738640;32;39930;-70
2022/04/06 00:40:48;;;;;;;9.65;5.32;;;;;;;10.15;56.58;99186.19;7738160;32;39011;-70
2022/04/06 00:45:05;;;;;;;9.48;5.80;;;;;;;10.21;55.65;99178.78;7738535;32;37078;-71
2022/04/06 00:49:21;;;;;;;7.78;5.12;;;;;;;10.28;55.43;99179.28;7738446;32;39495;-71
2022/04/06 00:53:37;;;;;;;9.15;6.05;;;;;;;9.99;56.24;99174.59;7738432;32;40804;-70
2022/04/06 00:57:53;;;;;;;9.40;5.45;;;;;;;10.19;56.17;99175.53;7738164;32;37810;-72
2022/04/06 01:02:11;;;;;;;8.40;4.62;;;;;;;10.08;56.55;99178.31;7738294;32;37833;-70
2022/04/06 01:06:27;;;;;;;8.38;5.12;;;;;;;9.83;57.18;99186.66;7737668;32;39340;-71
2022/04/06 01:10:43;;;;;;;10.32;5.47;;;;;;;9.91;57.18;99186.88;7737748;32;39994;-70
2022/04/06 01:14:59;;;;;;;7.57;5.30;;;;;;;9.95;56.96;99177.06;7736906;32;37857;-70
2022/04/06 01:19:16;;;;;;;8.70;5.07;;;;;;;9.66;57.66;99174.25;7738021;32;37151;-71
2022/04/06 01:23:32;;;;;;;8.75;5.20;;;;;;;9.73;57.64;99180.19;7738361;32;39138;-71
2022/04/06 01:27:48;;;;;;;8.38;5.03;;;;;;;9.83;57.48;99176.59;7736026;32;39712;-70
2022/04/06 01:32:19;;;;;;;8.52;4.82;;;;;;;9.73;57.83;99182.91;7737985;32;37588;-70
2022/04/06 01:36:35;;;;;;;12.50;4.93;;;;;;;10.01;56.80;99164.22;7737617;32;37836;-71
2022/04/06 01:40:55;;;;;;;8.20;4.72;;;;;;;10.10;56.85;99170.69;7737554;32;40017;-71
2022/04/06 01:45:11;;;;;;;6.93;4.47;;;;;;;10.09;57.01;99168.25;7736582;32;40001;-72
2022/04/06 01:54:02;;;;;;;6.53;4.00;;;;;;;10.06;57.36;99171.56;7736303;32;38464;-71
2022/04/06 01:58:18;;;;;;;5.40;3.50;;;;;;;10.10;57.70;99169.87;7735977;32;39924;-69
2022/04/06 02:02:35;;;;;;;5.82;3.55;;;;;;;10.09;58.08;99169.06;7737615;32;40520;-70
2022/04/06 02:06:51;;;;;;;5.20;3.40;;;;;;;10.35;57.30;99163.47;7737354;32;39091;-72
2022/04/06 02:11:07;;;;;;;6.57;3.40;;;;;;;10.35;57.77;99174.34;7715951;32;38045;-72
2022/04/06 02:15:24;;;;;;;5.68;3.72;;;;;;;10.29;57.92;99168.09;7709333;32;39160;-71
2022/04/06 02:19:40;;;;;;;5.60;3.80;;;;;;;10.34;57.70;99172.72;7730296;32;39958;-70
2022/04/06 02:23:57;;;;;;;5.03;3.47;;;;;;;10.54;56.89;99177.19;7736985;32;37970;-70
2022/04/06 02:28:13;;;;;;;8.18;3.75;;;;;;;10.43;57.04;99165.53;7714327;32;37732;-71
2022/04/06 02:32:29;;;;;;;5.72;3.60;;;;;;;10.48;57.18;99173.69;7710064;32;40098;-71
2022/04/06 02:36:45;;;;;;;4.95;3.55;;;;;;;10.46;57.24;99175.06;7709784;32;40732;-70
2022/04/06 02:41:01;;;;;;;6.28;3.53;;;;;;;10.65;56.78;99175.19;7709698;32;37824;-70
2022/04/06 02:45:17;;;;;;;5.47;3.10;;;;;;;10.51;57.28;99173.13;7709779;32;37069;-71
2022/04/06 02:49:34;;;;;;;3.55;2.60;;;;;;;10.42;58.03;99166.66;7709639;32;40196;-70
2022/04/06 02:53:51;;;;;;;4.75;2.87;;;;;;;10.67;57.31;99160.16;7721619;32;40007;-71
2022/04/06 02:58:07;;;;;;;4.75;2.50;;;;;;;10.69;57.30;99152.50;7709326;32;37886;-72
2022/04/06 03:02:23;;;;;;;3.80;2.40;;;;;;;10.88;56.68;99154.47;7709371;32;37818;-71
2022/04/06 03:06:40;;;;;;;3.95;2.25;;;;;;;10.68;57.10;99142.69;7709208;32;40143;-70
2022/04/06 03:10:57;;;;;;;3.97;2.50;;;;;;;10.95;56.31;99148.69;7730663;32;39965;-70
2022/04/06 03:15:14;;;;;;;3.67;2.50;;;;;;;10.96;56.36;99151.12;7735574;32;37891;-71
2022/04/06 03:19:30;;;;;;;6.72;3.80;;;;;;;10.52;57.97;99147.50;7735514;32;37322;-71
2022/04/06 03:23:47;;;;;;;5.07;2.65;;;;;;;10.28;57.59;99152.06;7726796;32;40177;-71
2022/04/06 03:28:03;;;;;;;3.10;2.47;;;;;;;10.51;56.94;99159.50;7708680;32;40847;-72
2022/04/06 03:32:19;;;;;;;3.58;2.60;;;;;;;10.73;56.61;99155.47;7711978;32;37861;-72
2022/04/06 03:36:35;;;;;;;5.80;3.03;;;;;;;10.62;57.22;99159.38;7712507;32;37067;-71
2022/04/06 03:40:51;;;;;;;5.15;2.80;;;;;;;10.75;57.01;99160.66;7735864;32;40001;-72
2022/04/06 03:45:08;;;;;;;5.00;2.58;;;;;;;10.87;56.49;99159.12;7738834;32;39859;-71
2022/04/06 03:49:24;;;;;;;4.00;2.72;;;;;;;10.77;56.68;99167.41;7739107;32;37638;-71
2022/04/06 03:53:40;;;;;;;3.17;2.50;;;;;;;11.03;55.79;99172.59;7731185;32;36945;-71
2022/04/06 03:57:59;;;;;;;5.72;2.60;;;;;;;10.78;56.78;99163.59;7712170;32;39362;-71
2022/04/06 04:02:18;;;;;;;3.78;2.45;;;;;;;10.92;56.60;99157.44;7712293;32;40501;-71
2022/04/06 04:06:35;;;;;;;2.80;2.42;;;;;;;11.09;56.12;99160.53;7712131;32;38080;-72
2022/04/06 04:10:51;;;;;;;3.62;2.70;;;;;;;10.98;56.42;99170.75;7711751;32;37778;-72
2022/04/06 04:15:07;;;;;;;2.97;2.50;;;;;;;10.99;56.50;99168.84;7712206;32;39380;-71
2022/04/06 04:19:23;;;;;;;4.53;2.60;;;;;;;10.84;56.93;99175.25;7711934;32;40811;-71
2022/04/06 04:23:40;;;;;;;3.45;2.40;;;;;;;10.93;56.68;99173.53;7719141;32;38005;-71
2022/04/06 04:27:56;;;;;;;3.85;2.47;;;;;;;10.86;56.81;99173.06;7738825;32;37158;-71
2022/04/06 04:32:13;;;;;;;3.90;2.70;;;;;;;11.00;56.65;99178.63;7738922;32;39130;-71
2022/04/06 04:36:29;;;;;;;3.30;2.20;;;;;;;10.92;56.61;99173.81;7738525;32;39851;-71
2022/04/06 04:40:46;;;;;;;3.00;2.28;;;;;;;11.01;56.57;99175.63;7712187;32;37910;-71
2022/04/06 04:45:03;;;;;;;3.65;2.33;;;;;;;10.97;57.00;99173.75;7711783;32;38080;-71
2022/04/06 04:49:19;;;;;;;2.45;2.10;;;;;;;11.08;56.81;99183.47;7711660;32;40131;-69
2022/04/06 04:53:35;;;;;;;2.58;2.20;;;;;;;10.98;57.29;99184.38;7711820;32;40814;-71
2022/04/06 04:57:52;;;;;;;3.87;2.30;;;;;;;10.95;57.83;99193.16;7711448;32;39029;-71
2022/04/06 05:02:08;;;;;;;3.80;2.30;;;;;;;11.00;57.41;99197.72;7711611;32;37020;-71
2022/04/06 05:06:24;;;;;;;4.68;3.22;;;;;;;10.95;57.50;99205.97;7711600;32;39935;-71
2022/04/06 05:10:40;;;;;;;5.68;3.25;;;;;;;10.84;57.31;99207.97;7734908;32;39632;-71
2022/04/06 05:14:56;;;;;;;4.32;3.03;;;;;;;11.05;56.43;99214.84;7736894;32;38414;-71
2022/04/06 05:19:12;;;;;;;6.12;3.60;;;;;;;10.97;57.78;99217.38;7738042;32;37564;-71
2022/04/06 05:23:28;;;;;;;6.20;3.83;;;;;;;11.02;58.17;99223.63;7738003;32;39401;-71
2022/04/06 05:27:45;;;;;;;7.57;3.97;;;;;;;11.06;58.64;99221.13;7738079;32;40753;-71
2022/04/06 05:32:02;;;;;;;13.18;4.20;;;;;;;11.17;57.96;99232.75;7737805;32;38526;-71
2022/04/06 05:36:19;;;;;;;8.63;3.85;;;;;;;11.07;57.59;99233.66;7737820;32;37228;-71
2022/04/06 05:40:35;;;;;;;8.65;4.60;;;;;;;10.98;57.74;99240.84;7713860;32;39407;-71
2022/04/06 05:44:51;;;;;;;10.25;5.82;;;;;;;10.97;57.96;99252.84;7710875;32;39926;-71
2022/04/06 05:49:07;;;;;;;11.98;4.90;;;;;;;10.73;58.77;99244.59;7710836;32;37910;-71
2022/04/06 05:53:24;;;;;;;10.60;5.05;;;;;;;11.20;57.36;99232.97;7710742;32;37248;-74
2022/04/06 05:57:40;;;;;;;11.80;5.95;;;;;;;11.18;57.72;99245.28;7710843;32;39150;-74
2022/04/06 06:01:56;;;;;;;12.35;5.78;;;;;;;10.91;58.63;99246.63;7710853;32;39892;-71
2022/04/06 06:06:12;;;;;;;11.80;6.00;;;;;;;11.21;57.72;99239.22;7710246;32;37953;-69
2022/04/06 06:10:29;;;;;;;12.48;6.45;;;;;;;11.01;58.66;99245.72;7730000;32;37403;-69
2022/04/06 06:14:45;;;;;;;8.50;5.47;;;;;;;11.22;58.20;99235.41;7733734;32;39358;-69
2022/04/06 06:19:01;;;;;;;11.23;5.80;;;;;;;11.19;58.76;99242.28;7736962;32;40068;-67
2022/04/06 06:23:17;;;;;;;9.43;5.35;;;;;;;11.60;58.51;99239.06;7736935;32;37864;-77
2022/04/06 06:27:44;;;;;;;9.60;5.57;;;;;;;12.11;57.38;99245.00;7736115;32;37788;-71
2022/04/06 06:32:06;;;;;;;12.65;5.10;;;;;;;12.17;57.43;99241.06;7735455;32;40105;-70
2022/04/06 06:36:25;;;;;;;8.30;3.90;;;;;;;12.55;55.79;99230.09;7735663;32;40990;-71
2022/04/06 06:40:42;;;;;;;8.43;4.47;;;;;;;12.71;55.58;99242.41;7711649;32;37927;-71
2022/04/06 06:44:58;;;;;;;10.52;6.00;;;;;;;13.00;53.82;99246.81;7709878;32;38282;-73
2022/04/06 06:49:15;;;;;;;7.20;4.05;;;;;;;13.35;53.49;99244.59;7709758;32;39982;-71
2022/04/06 06:53:32;;;;;;;9.07;5.40;;;;;;;13.59;52.23;99246.28;7709553;32;40226;-71
2022/04/06 06:57:48;;;;;;;8.55;5.43;;;;;;;13.80;51.94;99247.50;7709350;32;37674;-71
2022/04/06 07:02:05;;;;;;;7.93;5.12;;;;;;;13.71;52.03;99246.59;7709579;32;37110;-73
2022/04/06 07:06:21;;;;;;;7.37;4.90;;;;;;;13.75;51.73;99246.81;7715241;32;39511;-73
2022/04/06 07:10:37;;;;;;;9.48;4.57;;;;;;;13.66;51.65;99244.78;7714219;32;40016;-73
2022/04/06 07:14:53;;;;;;;7.32;3.85;;;;;;;14.13;50.67;99247.34;7721899;32;38666;-72
2022/04/06 07:19:09;;;;;;;5.65;3.70;;;;;;;14.18;50.15;99255.44;7712935;32;37111;-75
2022/04/06 07:23:25;;;;;;;8.55;3.42;;;;;;;14.46;49.29;99255.38;7714290;32;39295;-72
2022/04/06 07:27:42;;;;;;;9.65;3.45;;;;;;;14.38;48.89;99253.34;7721081;32;39735;-72
2022/04/06 07:31:58;;;;;;;5.70;3.05;;;;;;;14.67;47.59;99250.22;7711138;32;37669;-72
2022/04/06 07:36:14;;;;;;;3.40;2.33;;;;;;;14.79;46.46;99257.88;7712285;32;36962;-74
2022/04/06 07:40:30;;;;;;;3.50;1.90;;;;;;;15.01;46.37;99251.56;7737875;32;40553;-68
2022/04/06 07:44:47;;;;;;;4.03;2.67;;;;;;;15.16;43.47;99250.34;7718236;32;40038;-71
2022/04/06 07:49:06;;;;;;;4.40;2.45;;;;;;;14.98;46.54;99250.25;7724427;32;37807;-73
2022/04/06 07:53:22;;;;;;;7.78;2.42;;;;;;;15.40;42.45;99253.53;7730109;32;37131;-72
2022/04/06 07:57:39;;;;;;;3.95;2.10;;;;;;;15.20;41.94;99262.31;7713219;32;39368;-73
2022/04/06 08:01:55;;;;;;;3.30;2.20;;;;;;;15.38;41.58;99255.78;7711105;32;39921;-74
2022/04/06 08:06:11;;;;;;;4.82;2.40;;;;;;;15.96;39.44;99253.06;7712200;32;38580;-74
2022/04/06 08:10:30;;;;;;;3.97;2.03;;;;;;;15.80;39.59;99258.22;7710052;32;37222;-76
2022/04/06 08:14:50;;;;;;;3.90;1.37;;;;;;;16.09;40.03;99252.13;7708423;32;39394;-77
2022/04/06 08:19:06;;;;;;;1.20;1.10;;;;;;;16.00;38.84;99251.28;7709919;32;39540;-73
2022/04/06 08:23:22;;;;;;;1.83;1.20;;;;;;;16.61;38.15;99243.06;7711476;32;38347;-74
2022/04/06 08:27:42;;;;;;;1.15;1.02;;;;;;;16.30;36.79;99246.00;7712055;32;37267;-74
2022/04/06 08:31:58;;;;;;;1.70;1.10;;;;;;;16.60;37.04;99251.66;7712108;32;39235;-73
2022/04/06 08:36:16;;;;;;;1.67;1.10;;;;;;;16.67;38.40;99252.75;7712025;32;39635;-74
2022/04/06 08:40:33;;;;;;;1.50;1.02;;;;;;;16.28;37.91;99251.00;7711998;32;37568;-74
2022/04/06 08:44:49;;;;;;;1.55;1.30;;;;;;;16.68;37.73;99251.63;7711970;32;37788;-73
2022/04/06 08:49:06;;;;;;;1.45;1.20;;;;;;;17.21;36.95;99244.09;7711816;32;39915;-73
2022/04/06 08:53:22;;;;;;;7.68;1.52;;;;;;;17.17;37.15;99239.56;7710952;32;41821;-74
2022/04/06 08:57:40;;;;;;;2.78;1.27;;;;;;;17.80;37.09;99240.59;7708173;32;37710;-75
2022/04/06 09:01:57;;;;;;;8.30;1.80;;;;;;;17.93;35.72;99240.69;7713688;32;37782;-75
2022/04/06 09:06:13;;;;;;;2.53;1.60;;;;;;;18.04;34.89;99241.09;7737681;32;39317;-74
2022/04/06 09:10:37;;;;;;;1.60;1.50;;;;;;;18.07;33.79;99243.19;7733337;32;39606;-74
2022/04/06 09:15:10;;;;;;;5.15;1.80;;;;;;;18.32;34.96;99236.69;7735534;32;38192;-73
2022/04/06 09:19:26;;;;;;;3.58;1.60;;;;;;;18.13;33.51;99241.88;7728479;32;37605;-73
2022/04/06 09:23:48;;;;;;;1.45;1.20;;;;;;;17.86;34.77;99235.72;7711090;32;40169;-74
2022/04/06 09:28:12;;;;;;;10.00;1.92;;;;;;;17.81;34.35;99239.44;7720429;32;39646;-73
2022/04/06 09:32:28;;;;;;;2.75;1.50;;;;;;;17.94;35.07;99234.84;7730861;32;37652;-73
2022/04/06 09:36:56;;;;;;;2.60;2.00;;;;;;;18.18;35.87;99231.44;7736532;32;37697;-74
2022/04/06 09:41:14;;;;;;;6.07;1.67;;;;;;;18.63;33.76;99229.91;7730003;32;39825;-74
2022/04/06 09:50:15;;;;;;;11.25;2.17;;;;;;;18.81;34.17;99215.94;7710903;32;37936;-74
2022/04/06 09:54:37;;;;;;;1.37;1.23;;;;;;;19.38;32.81;99200.50;7710994;32;38046;-73
2022/04/06 09:58:56;;;;;;;2.50;1.50;;;;;;;19.25;31.61;99194.19;7709600;32;40219;-73
2022/04/06 10:03:15;;;;;;;2.53;1.62;;;;;;;19.29;31.77;99190.38;7716958;32;40508;-74
2022/04/06 10:07:33;;;;;;;2.15;1.62;;;;;;;19.46;31.69;99185.78;7736857;32;38662;-75
2022/04/06 10:11:51;;;;;;;3.90;2.10;;;;;;;19.36;31.90;99178.75;7720648;32;35345;-75
2022/04/06 10:16:10;;;;;;;3.33;2.00;;;;;;;19.22;31.27;99162.50;7715492;32;39326;-75
2022/04/06 10:20:48;;;;;;;2.58;1.75;;;;;;;20.08;30.15;99159.66;7723991;32;39620;-74
2022/04/06 10:25:17;;;;;;;4.18;2.10;;;;;;;19.77;30.30;99163.06;7716313;32;37912;-74
2022/04/06 10:29:52;;;;;;;6.57;2.12;;;;;;;20.46;30.11;99149.25;7732029;32;37274;-74
2022/04/06 10:34:28;;;;;;;6.22;2.20;;;;;;;21.01;28.45;99150.31;7734230;32;39196;-77
2022/04/06 10:39:06;;;;;;;4.43;2.80;;;;;;;20.86;28.76;99131.72;7709053;32;40814;-75
2022/04/06 10:43:39;;;;;;;5.60;2.80;;;;;;;21.10;29.84;99135.47;7713734;32;37960;-72
2022/04/06 10:48:12;;;;;;;19.15;8.30;;;;;;;21.52;29.02;99123.81;7712920;32;39297;-76
2022/04/06 10:52:28;;;;;;;11.02;4.75;;;;;;;20.78;27.78;99132.69;7712808;32;39501;-75
2022/04/06 10:56:54;;;;;;;8.65;3.62;;;;;;;22.01;26.77;99109.41;7712814;32;41258;-75
2022/04/06 11:01:18;;;;;;;23.58;14.30;;;;;;;21.81;26.07;99110.59;7719428;32;38655;-76
2022/04/06 11:05:52;;;;;;;4.65;2.37;;;;;;;21.07;27.28;99105.72;7739423;32;36558;-74
2022/04/06 11:10:13;;;;;;;3.25;2.12;;;;;;;21.07;27.12;99102.94;7726370;32;40111;-75
2022/04/06 11:14:29;;;;;;;3.97;2.17;;;;;;;21.16;28.60;99089.69;7728008;32;39867;-76
2022/04/06 11:18:49;;;;;;;4.45;2.50;;;;;;;22.12;27.15;99081.88;7712550;32;37838;-77
2022/04/06 11:23:07;;;;;;;11.68;4.57;;;;;;;22.03;26.32;99081.31;7718811;32;37897;-76
2022/04/06 11:27:34;;;;;;;3.83;2.40;;;;;;;22.11;26.75;99083.84;7738976;32;39962;-76
2022/04/06 11:32:02;;;;;;;4.37;2.80;;;;;;;21.93;26.08;99074.38;7737802;32;41526;-74
2022/04/06 11:36:19;;;;;;;3.00;2.00;;;;;;;22.52;26.60;99058.44;7737639;32;37770;-71
2022/04/06 11:40:42;;;;;;;8.55;4.47;;;;;;;22.92;24.78;99059.09;7737360;32;37029;-71
2022/04/06 11:44:58;;;;;;;3.45;2.30;;;;;;;22.60;24.16;99053.84;7737424;32;39848;-71
2022/04/06 11:49:21;;;;;;;6.90;3.25;;;;;;;22.55;24.91;99051.34;7729600;32;40816;-71
2022/04/06 11:53:37;;;;;;;5.35;3.20;;;;;;;22.19;25.27;99056.22;7738831;32;38755;-74
2022/04/06 11:57:56;;;;;;;5.62;2.50;;;;;;;22.67;25.13;99037.28;7736233;32;37367;-76
2022/04/06 12:02:12;;;;;;;4.37;3.03;;;;;;;23.28;23.90;99020.75;7736791;32;39238;-74
2022/04/06 12:06:36;;;;;;;5.72;3.33;;;;;;;22.39;25.06;99021.72;7738478;32;39975;-72
2022/04/06 12:10:56;;;;;;;5.55;3.20;;;;;;;23.09;24.11;99019.69;7703630;32;36863;-71
2022/04/06 12:15:12;;;;;;;7.55;3.40;;;;;;;22.96;23.57;99009.94;7729604;32;36778;-74
2022/04/06 12:19:31;;;;;;;7.07;3.15;;;;;;;23.61;23.56;99006.91;7732893;32;39827;-76
2022/04/06 12:23:48;;;;;;;5.70;2.95;;;;;;;23.10;23.40;98982.38;7738313;32;40101;-75
2022/04/06 12:28:17;;;;;;;5.70;3.53;;;;;;;23.17;23.33;98990.81;7733807;32;38667;-75
2022/04/06 12:32:44;;;;;;;7.97;2.95;;;;;;;22.87;24.89;98977.66;7691445;32;37098;-76
2022/04/06 12:37:29;;;;;;;7.85;3.80;;;;;;;23.10;23.58;98960.16;7711283;32;39877;-75
2022/04/06 12:42:02;;;;;;;4.35;2.58;;;;;;;24.43;22.77;98955.25;7711172;32;40768;-76
2022/04/06 12:46:57;;;;;;;3.87;2.17;;;;;;;24.11;22.70;98950.19;7711255;32;37609;-76
2022/04/06 12:51:21;;;;;;;3.83;2.35;;;;;;;24.68;20.92;98939.56;7679749;32;37050;-77
2022/04/06 12:55:37;;;;;;;4.25;2.45;;;;;;;24.76;22.04;98922.88;7698309;32;39181;-76
2022/04/06 13:00:02;;;;;;;7.78;2.28;;;;;;;24.60;21.47;98932.31;7710391;32;40806;-76
2022/04/06 13:04:19;;;;;;;6.40;2.08;;;;;;;24.56;22.15;98920.38;7710667;32;38641;-77
2022/04/06 13:08:35;;;;;;;5.22;1.95;;;;;;;23.36;23.36;98912.00;7707477;32;37969;-79
2022/04/06 13:12:51;;;;;;;5.47;1.92;;;;;;;24.00;21.81;98906.34;7707915;32;40129;-76
2022/04/06 13:17:07;;;;;;;6.78;1.87;;;;;;;24.40;21.76;98901.09;7709479;32;40764;-77
2022/04/06 13:21:25;;;;;;;2.25;1.70;;;;;;;24.55;22.01;98882.53;7711415;32;37866;-79
2022/04/06 13:25:42;;;;;;;3.60;1.83;;;;;;;23.98;21.92;98880.87;7738295;32;38055;-81
2022/04/06 13:29:59;;;;;;;5.28;1.83;;;;;;;24.43;21.47;98872.47;7715424;32;39465;-77
2022/04/06 13:34:17;;;;;;;3.53;2.53;;;;;;;24.54;21.76;98861.44;7710711;32;39888;-79
2022/04/06 13:38:33;;;;;;;3.90;2.37;;;;;;;24.77;21.24;98857.56;7710652;32;37924;-79
2022/04/06 13:42:49;;;;;;;3.70;2.45;;;;;;;23.92;22.68;98865.72;7710560;32;37304;-78
2022/04/06 13:47:05;;;;;;;6.37;3.22;;;;;;;24.64;21.78;98845.97;7710584;32;40210;-77
2022/04/06 13:51:21;;;;;;;6.50;3.62;;;;;;;24.69;21.56;98840.03;7710008;32;40059;-77
2022/04/06 13:55:38;;;;;;;7.62;4.60;;;;;;;24.73;22.16;98840.84;7710867;32;37984;-78
2022/04/06 13:59:55;;;;;;;9.35;4.40;;;;;;;25.26;20.91;98820.75;7709780;32;36778;-77
2022/04/06 14:04:13;;;;;;;9.63;4.75;;;;;;;25.20;21.46;98813.13;7709859;32;40394;-77
2022/04/06 14:08:31;;;;;;;7.70;3.60;;;;;;;25.31;21.65;98808.44;7721384;32;40764;-78
2022/04/06 14:12:47;;;;;;;8.30;4.25;;;;;;;25.34;21.03;98796.47;7736028;32;37951;-81
2022/04/06 14:17:03;;;;;;;7.78;3.97;;;;;;;24.23;22.03;98801.53;7734929;32;36527;-78
2022/04/06 14:21:20;;;;;;;6.12;3.58;;;;;;;24.64;22.39;98791.03;7733771;32;39826;-76
2022/04/06 14:25:36;;;;;;;6.82;3.90;;;;;;;24.22;21.86;98783.22;7736418;32;39612;-78
2022/04/06 14:29:54;;;;;;;7.22;3.75;;;;;;;24.32;21.52;98777.72;7736117;32;37985;-78
2022/04/06 14:34:10;;;;;;;9.43;4.68;;;;;;;24.65;21.22;98767.56;7736484;32;36152;-77
2022/04/06 14:38:31;;;;;;;6.25;3.25;;;;;;;24.91;21.29;98758.09;7735982;32;39993;-78
2022/04/06 14:42:47;;;;;;;8.30;4.10;;;;;;;24.47;21.33;98758.28;7734656;32;39919;-78
2022/04/06 14:47:03;;;;;;;9.32;4.68;;;;;;;24.70;21.62;98747.69;7736454;32;38616;-78
2022/04/06 14:51:19;;;;;;;8.40;4.68;;;;;;;24.38;21.58;98737.16;7735801;32;38016;-79
2022/04/06 14:55:36;;;;;;;20.23;5.28;;;;;;;23.91;22.02;98749.22;7736035;32;40183;-78
2022/04/06 14:59:53;;;;;;;7.35;4.07;;;;;;;23.11;22.96;98733.81;7719491;32;40125;-81
2022/04/06 15:04:09;;;;;;;7.75;3.78;;;;;;;23.35;21.73;98723.31;7707790;32;38067;-81
2022/04/06 15:08:25;;;;;;;8.55;4.25;;;;;;;23.71;21.16;98721.59;7722272;32;37060;-79
2022/04/06 15:12:41;;;;;;;8.52;4.57;;;;;;;23.85;21.33;98712.59;7735560;32;39282;-78
2022/04/06 15:16:57;;;;;;;8.48;4.50;;;;;;;23.84;21.13;98704.66;7735508;32;39902;-78
2022/04/06 15:21:13;;;;;;;14.70;5.57;;;;;;;23.50;21.72;98694.44;7735134;32;37764;-78
2022/04/06 15:25:39;;;;;;;8.73;4.25;;;;;;;23.04;22.34;98689.22;7726371;32;37084;-80
2022/04/06 15:29:56;;;;;;;8.23;4.45;;;;;;;23.44;22.03;98690.41;7712232;32;39351;-79
2022/04/06 15:37:18;;;;;;;9.60;5.15;;;;;;;23.09;22.65;98697.25;7714226;32;40125;-79
2022/04/06 15:38:52;;;;;;;9.93;4.43;;;;;;;22.86;22.46;98689.06;7737393;32;38726;-80
2022/04/06 15:43:08;;;;;;;9.73;4.50;;;;;;;22.93;22.92;98691.91;7738714;32;37663;-77
2022/04/06 15:47:25;;;;;;;10.38;4.57;;;;;;;22.26;23.29;98679.59;7738554;32;40248;-76
2022/04/06 15:51:41;;;;;;;9.88;4.57;;;;;;;22.40;23.61;98678.22;7735452;32;40838;-77
2022/04/06 15:55:58;;;;;;;10.07;4.97;;;;;;;22.13;23.55;98667.97;7736135;32;37944;-78
2022/04/06 16:00:15;;;;;;;10.05;4.50;;;;;;;22.40;23.50;98662.34;7709775;32;36762;-78
2022/04/06 16:04:31;;;;;;;10.10;4.57;;;;;;;22.28;24.03;98648.72;7716257;32;39502;-79
2022/04/06 16:08:47;;;;;;;10.68;4.80;;;;;;;22.43;23.35;98649.72;7723914;32;40812;-78
2022/04/06 16:13:06;;;;;;;14.48;5.85;;;;;;;22.34;23.23;98652.78;7714539;32;38910;-77
2022/04/06 16:17:23;;;;;;;15.35;5.30;;;;;;;22.60;23.38;98637.19;7710650;32;38173;-75
2022/04/06 16:21:40;;;;;;;11.32;5.75;;;;;;;22.41;23.83;98646.50;7711714;32;39304;-80
2022/04/06 16:25:56;;;;;;;10.95;5.43;;;;;;;22.50;23.31;98633.91;7711668;32;40814;-77
2022/04/06 16:30:12;;;;;;;11.05;5.70;;;;;;;22.34;23.65;98630.56;7711361;32;37623;-77
2022/04/06 16:34:28;;;;;;;14.27;5.78;;;;;;;22.77;22.81;98630.25;7711587;32;37843;-76
2022/04/06 16:38:44;;;;;;;10.52;4.68;;;;;;;22.82;23.12;98613.22;7710399;32;39402;-78
2022/04/06 16:43:01;;;;;;;12.20;5.60;;;;;;;22.82;23.23;98614.00;7707953;32;39999;-76
2022/04/06 16:47:17;;;;;;;10.95;5.90;;;;;;;22.55;24.13;98607.00;7711233;32;37958;-78
2022/04/06 16:56:13;;;;;;;9.23;4.85;;;;;;;22.43;23.54;98596.94;7711212;32;39307;-78
2022/04/06 17:00:29;;;;;;;9.35;4.20;;;;;;;21.98;24.15;98602.34;7711006;32;40744;-77
2022/04/06 17:04:45;;;;;;;10.80;4.90;;;;;;;21.64;25.14;98604.28;7711252;32;38637;-77
2022/04/06 17:09:01;;;;;;;9.15;4.45;;;;;;;21.83;25.02;98595.03;7710394;32;37217;-78
2022/04/06 17:13:17;;;;;;;10.60;5.15;;;;;;;21.55;25.47;98591.47;7711022;32;40132;-76
2022/04/06 17:17:34;;;;;;;9.15;4.60;;;;;;;21.55;25.60;98590.69;7711074;32;40000;-75
2022/04/06 17:21:50;;;;;;;6.57;3.25;;;;;;;21.54;25.65;98587.12;7710866;32;39248;-72
2022/04/06 17:26:06;;;;;;;10.10;4.05;;;;;;;21.59;26.95;98590.72;7711597;32;37130;-74
2022/04/06 17:30:22;;;;;;;9.93;3.72;;;;;;;21.17;26.77;98587.72;7735776;32;39610;-75
2022/04/06 17:34:38;;;;;;;10.43;5.35;;;;;;;20.43;27.59;98585.25;7737415;32;39605;-74
2022/04/06 17:38:55;;;;;;;10.15;5.00;;;;;;;20.25;28.10;98576.63;7714264;32;37964;-74
2022/04/06 17:43:12;;;;;;;8.68;4.70;;;;;;;20.55;27.58;98579.53;7709662;32;37324;-75
2022/04/06 17:47:28;;;;;;;10.05;4.93;;;;;;;19.73;29.29;98584.25;7712413;32;38944;-74
2022/04/06 17:51:44;;;;;;;12.00;5.47;;;;;;;20.05;28.90;98584.13;7710967;32;39857;-74
2022/04/06 17:56:04;;;;;;;10.70;5.25;;;;;;;20.10;28.59;98586.59;7710933;32;37925;-74
2022/04/06 18:00:20;;;;;;;11.50;5.32;;;;;;;19.58;29.75;98588.66;7737485;32;37242;-74
2022/04/06 18:04:37;;;;;;;9.80;5.28;;;;;;;19.95;29.15;98590.25;7715440;32;39358;-73
2022/04/06 18:08:54;;;;;;;12.23;5.93;;;;;;;19.57;29.71;98586.25;7730442;32;39628;-74
2022/04/06 18:17:48;;;;;;;9.73;5.28;;;;;;;19.65;29.31;98586.03;7695466;32;36781;-74
2022/04/06 18:22:04;;;;;;;9.60;4.82;;;;;;;19.63;29.53;98587.56;7687647;32;39428;-73
2022/04/06 18:26:20;;;;;;;12.77;5.30;;;;;;;19.27;30.00;98595.06;7684845;32;40500;-74
2022/04/06 18:30:36;;;;;;;11.12;5.30;;;;;;;18.96;30.39;98596.69;7709642;32;38434;-74
2022/04/06 18:34:52;;;;;;;10.15;5.00;;;;;;;19.09;30.22;98600.97;7708029;32;37725;-73
2022/04/06 18:39:08;;;;;;;9.35;4.82;;;;;;;19.21;30.36;98596.47;7689077;32;39278;-74
2022/04/06 18:43:25;;;;;;;10.77;4.30;;;;;;;19.01;30.62;98601.94;7683987;32;40128;-74
2022/04/06 18:47:41;;;;;;;11.75;4.70;;;;;;;19.26;29.73;98588.72;7735060;32;38661;-74
2022/04/06 18:51:58;;;;;;;12.35;5.20;;;;;;;19.11;30.11;98589.56;7736121;32;37052;-74
2022/04/06 18:56:19;;;;;;;10.48;4.95;;;;;;;19.29;29.87;98593.53;7731905;32;40204;-74
2022/04/06 19:00:35;;;;;;;11.23;5.22;;;;;;;19.02;31.21;98589.72;7709774;32;39920;-75
2022/04/06 19:04:54;;;;;;;10.00;5.07;;;;;;;18.75;30.97;98585.88;7711715;32;38748;-75
2022/04/06 19:09:11;;;;;;;11.85;4.45;;;;;;;18.61;32.55;98591.84;7737641;32;37891;-74
2022/04/06 19:13:27;;;;;;;7.75;4.47;;;;;;;18.56;32.06;98587.38;7738902;32;40207;-74
2022/04/06 19:17:44;;;;;;;9.15;4.55;;;;;;;18.57;31.06;98585.41;7723230;32;39921;-75
2022/04/06 19:22:02;;;;;;;13.77;6.25;;;;;;;18.63;31.10;98589.53;7712272;32;38470;-74
2022/04/06 19:26:19;;;;;;;9.55;5.30;;;;;;;18.34;32.48;98583.25;7712697;32;37871;-74
2022/04/06 19:30:40;;;;;;;15.73;5.25;;;;;;;18.11;32.72;98580.25;7739075;32;39485;-74
2022/04/06 19:34:57;;;;;;;9.18;4.32;;;;;;;17.84;33.53;98576.31;7738331;32;40076;-73
2022/04/06 19:39:13;;;;;;;12.05;5.75;;;;;;;18.15;31.88;98574.84;7684786;32;37863;-75
2022/04/06 19:43:29;;;;;;;8.60;4.03;;;;;;;17.96;33.04;98573.53;7689009;32;37925;-73
2022/04/06 19:47:45;;;;;;;9.68;5.35;;;;;;;18.13;37.43;98566.91;7711437;32;39398;-71
2022/04/06 19:52:05;;;;;;;11.57;4.72;;;;;;;18.07;32.16;98557.28;7712116;32;39932;-71
2022/04/06 19:56:21;;;;;;;11.88;5.40;;;;;;;18.00;32.30;98552.37;7702657;32;37523;-71
2022/04/06 20:00:38;;;;;;;11.23;5.20;;;;;;;17.70;33.80;98554.66;7716141;32;37201;-71
2022/04/06 20:04:54;;;;;;;11.23;4.90;;;;;;;17.46;33.98;98555.50;7711366;32;40383;-70
2022/04/06 20:09:10;;;;;;;8.88;4.90;;;;;;;17.43;33.47;98565.25;7711151;32;39889;-70
2022/04/06 20:13:26;;;;;;;10.10;5.32;;;;;;;17.00;34.65;98550.16;7711246;32;37628;-70
2022/04/06 20:17:42;;;;;;;10.20;5.03;;;;;;;16.91;35.58;98545.94;7711163;32;37977;-70
2022/04/06 20:21:58;;;;;;;12.95;6.10;;;;;;;17.01;36.07;98543.53;7711668;32;40089;-71
2022/04/06 20:26:15;;;;;;;10.88;5.57;;;;;;;16.48;37.21;98546.09;7711742;32;39987;-70
2022/04/06 20:30:31;;;;;;;9.88;5.53;;;;;;;16.37;37.38;98538.63;7735034;32;38702;-70